sensor_id;sensor_type;location;lat;lon;timestamp;pressure;altitude;pressure_sealevel;temperature;humidity
8320;BME280;4197;42.130;24.746;2024-03-23T00:53:57;99681.88;;;4.78;97.66
8320;BME280;4197;42.130;24.746;2024-03-23T00:56:23;99684.41;;;4.75;98.16
8320;BME280;4197;42.130;24.746;2024-03-23T00:58:51;99677.41;;;4.74;99.03
8320;BME280;4197;42.130;24.746;2024-03-23T01:01:17;99685.31;;;4.70;99.30
8320;BME280;4197;42.130;24.746;2024-03-23T01:03:46;99678.66;;;4.67;100.00
8320;BME280;4197;42.130;24.746;2024-03-23T01:06:13;99674.06;;;4.68;100.00
8320;BME280;4197;42.130;24.746;2024-03-23T01:08:40;99674.06;;;4.68;100.00
8320;BME280;4197;42.130;24.746;2024-03-23T01:11:06;99671.88;;;4.70;100.00
8320;BME280;4197;42.130;24.746;2024-03-23T01:13:34;99668.25;;;4.66;100.00
8320;BME280;4197;42.130;24.746;2024-03-23T01:16:00;99671.06;;;4.61;100.00
8320;BME280;4197;42.130;24.746;2024-03-23T01:18:27;99662.94;;;4.52;100.00
8320;BME280;4197;42.130;24.746;2024-03-23T01:20:56;99669.25;;;4.47;100.00
8320;BME280;4197;42.130;24.746;2024-03-23T01:23:24;99676.69;;;4.51;100.00
8320;BME280;4197;42.130;24.746;2024-03-23T01:25:54;99672.53;;;4.44;100.00
8320;BME280;4197;42.130;24.746;2024-03-23T01:28:21;99678.19;;;4.43;100.00
8320;BME280;4197;42.130;24.746;2024-03-23T01:30:48;99680.22;;;4.37;100.00
8320;BME280;4197;42.130;24.746;2024-03-23T01:33:16;99669.94;;;4.31;100.00
8320;BME280;4197;42.130;24.746;2024-03-23T01:35:42;99670.53;;;4.28;100.00
8320;BME280;4197;42.130;24.746;2024-03-23T01:38:11;99669.25;;;4.25;100.00
8320;BME280;4197;42.130;24.746;2024-03-23T01:40:37;99670.50;;;4.19;100.00
8320;BME280;4197;42.130;24.746;2024-03-23T01:43:05;99671.56;;;4.18;100.00
8320;BME280;4197;42.130;24.746;2024-03-23T01:45:34;99679.28;;;4.11;100.00
8320;BME280;4197;42.130;24.746;2024-03-23T01:48:01;99679.06;;;4.07;100.00
8320;BME280;4197;42.130;24.746;2024-03-23T01:50:30;99680.19;;;4.06;100.00
8320;BME280;4197;42.130;24.746;2024-03-23T01:53:01;99670.22;;;4.07;100.00
8320;BME280;4197;42.130;24.746;2024-03-23T01:55:31;99680.19;;;4.06;100.00
8320;BME280;4197;42.130;24.746;2024-03-23T01:57:58;99681.41;;;4.00;100.00
8320;BME280;4197;42.130;24.746;2024-03-23T02:00:25;99677.44;;;3.97;100.00
8320;BME280;4197;42.130;24.746;2024-03-23T02:02:53;99683.22;;;3.91;100.00
8320;BME280;4197;42.130;24.746;2024-03-23T02:05:20;99677.53;;;3.92;100.00
8320;BME280;4197;42.130;24.746;2024-03-23T02:07:47;99674.97;;;3.87;100.00
8320;BME280;4197;42.130;24.746;2024-03-23T02:10:14;99675.91;;;3.83;100.00
8320;BME280;4197;42.130;24.746;2024-03-23T02:12:43;99675.69;;;3.79;100.00
8320;BME280;4197;42.130;24.746;2024-03-23T02:15:09;99671.25;;;3.74;100.00
8320;BME280;4197;42.130;24.746;2024-03-23T02:17:36;99673.72;;;3.71;100.00
8320;BME280;4197;42.130;24.746;2024-03-23T02:20:03;99679.88;;;3.71;100.00
8320;BME280;4197;42.130;24.746;2024-03-23T02:22:39;99671.16;;;3.66;100.00
8320;BME280;4197;42.130;24.746;2024-03-23T02:25:07;99672.09;;;3.61;100.00
8320;BME280;4197;42.130;24.746;2024-03-23T02:27:34;99673.47;;;3.58;100.00
8320;BME280;4197;42.130;24.746;2024-03-23T02:30:02;99667.09;;;3.54;100.00
8320;BME280;4197;42.130;24.746;2024-03-23T02:32:31;99674.97;;;3.51;100.00
8320;BME280;4197;42.130;24.746;2024-03-23T02:34:57;99668.03;;;3.50;100.00
8320;BME280;4197;42.130;24.746;2024-03-23T02:37:24;99671.31;;;3.47;100.00
8320;BME280;4197;42.130;24.746;2024-03-23T02:39:50;99668.13;;;3.45;100.00
8320;BME280;4197;42.130;24.746;2024-03-23T02:42:19;99667.94;;;3.41;100.00
8320;BME280;4197;42.130;24.746;2024-03-23T02:44:45;99670.63;;;3.41;100.00
8320;BME280;4197;42.130;24.746;2024-03-23T02:47:13;99670.03;;;3.44;100.00
8320;BME280;4197;42.130;24.746;2024-03-23T02:49:39;99672.28;;;3.51;100.00
8320;BME280;4197;42.130;24.746;2024-03-23T02:52:06;99664.44;;;3.54;100.00
8320;BME280;4197;42.130;24.746;2024-03-23T02:54:32;99670.78;;;3.58;100.00
8320;BME280;4197;42.130;24.746;2024-03-23T02:56:59;99669.97;;;3.72;100.00
8320;BME280;4197;42.130;24.746;2024-03-23T02:59:27;99673.44;;;3.72;100.00
8320;BME280;4197;42.130;24.746;2024-03-23T03:01:54;99670.06;;;3.67;100.00
8320;BME280;4197;42.130;24.746;2024-03-23T03:04:22;99670.97;;;3.62;100.00
8320;BME280;4197;42.130;24.746;2024-03-23T03:06:49;99673.66;;;3.62;100.00
8320;BME280;4197;42.130;24.746;2024-03-23T03:09:16;99669.91;;;3.63;100.00
8320;BME280;4197;42.130;24.746;2024-03-23T03:11:43;99662.22;;;3.70;100.00
8320;BME280;4197;42.130;24.746;2024-03-23T03:14:09;99661.72;;;3.68;100.00
8320;BME280;4197;42.130;24.746;2024-03-23T03:16:38;99661.25;;;3.66;100.00
8320;BME280;4197;42.130;24.746;2024-03-23T03:19:04;99663.59;;;3.68;100.00
8320;BME280;4197;42.130;24.746;2024-03-23T03:21:32;99663.31;;;3.69;100.00
8320;BME280;4197;42.130;24.746;2024-03-23T03:24:26;99654.78;;;3.67;100.00
8320;BME280;4197;42.130;24.746;2024-03-23T03:26:53;99657.28;;;3.64;100.00
8320;BME280;4197;42.130;24.746;2024-03-23T03:29:20;99660.34;;;3.57;100.00
8320;BME280;4197;42.130;24.746;2024-03-23T03:31:49;99657.88;;;3.61;100.00
8320;BME280;4197;42.130;24.746;2024-03-23T03:34:16;99665.44;;;3.58;100.00
8320;BME280;4197;42.130;24.746;2024-03-23T03:36:44;99670.41;;;3.51;100.00
8320;BME280;4197;42.130;24.746;2024-03-23T03:39:11;99667.34;;;3.44;100.00
8320;BME280;4197;42.130;24.746;2024-03-23T03:41:38;99668.94;;;3.45;100.00
8320;BME280;4197;42.130;24.746;2024-03-23T03:44:04;99673.00;;;3.43;100.00
8320;BME280;4197;42.130;24.746;2024-03-23T03:46:31;99667.94;;;3.41;100.00
8320;BME280;4197;42.130;24.746;2024-03-23T03:48:59;99678.34;;;3.43;100.00
8320;BME280;4197;42.130;24.746;2024-03-23T03:51:27;99672.63;;;3.35;100.00
8320;BME280;4197;42.130;24.746;2024-03-23T03:53:53;99678.78;;;3.36;100.00
8320;BME280;4197;42.130;24.746;2024-03-23T03:56:20;99679.38;;;3.33;100.00
8320;BME280;4197;42.130;24.746;2024-03-23T03:58:48;99671.81;;;3.35;100.00
8320;BME280;4197;42.130;24.746;2024-03-23T04:01:15;99683.63;;;3.34;100.00
8320;BME280;4197;42.130;24.746;2024-03-23T04:03:42;99684.06;;;3.27;100.00
8320;BME280;4197;42.130;24.746;2024-03-23T04:06:19;99683.66;;;3.20;100.00
8320;BME280;4197;42.130;24.746;2024-03-23T04:08:46;99681.97;;;3.24;100.00
8320;BME280;4197;42.130;24.746;2024-03-23T04:11:13;99686.50;;;3.24;100.00
8320;BME280;4197;42.130;24.746;2024-03-23T04:13:39;99684.84;;;3.14;100.00
8320;BME280;4197;42.130;24.746;2024-03-23T04:16:07;99692.19;;;3.08;100.00
8320;BME280;4197;42.130;24.746;2024-03-23T04:18:35;99692.97;;;3.09;100.00
8320;BME280;4197;42.130;24.746;2024-03-23T04:21:03;99696.63;;;3.13;100.00
8320;BME280;4197;42.130;24.746;2024-03-23T04:23:31;99688.13;;;3.11;100.00
8320;BME280;4197;42.130;24.746;2024-03-23T04:26:03;99689.78;;;3.07;100.00
8320;BME280;4197;42.130;24.746;2024-03-23T04:28:29;99693.25;;;3.07;100.00
8320;BME280;4197;42.130;24.746;2024-03-23T04:30:57;99696.44;;;3.09;100.00
8320;BME280;4197;42.130;24.746;2024-03-23T04:33:23;99693.25;;;3.07;100.00
8320;BME280;4197;42.130;24.746;2024-03-23T04:35:50;99706.66;;;3.07;100.00
8320;BME280;4197;42.130;24.746;2024-03-23T04:38:17;99699.13;;;3.09;100.00
8320;BME280;4197;42.130;24.746;2024-03-23T04:40:54;99698.53;;;3.12;100.00
8320;BME280;4197;42.130;24.746;2024-03-23T04:43:21;99704.41;;;3.15;100.00
8320;BME280;4197;42.130;24.746;2024-03-23T04:45:49;99709.47;;;3.16;100.00
8320;BME280;4197;42.130;24.746;2024-03-23T04:48:16;99709.16;;;3.18;100.00
8320;BME280;4197;42.130;24.746;2024-03-23T04:50:44;99705.78;;;3.12;100.00
8320;BME280;4197;42.130;24.746;2024-03-23T04:53:11;99708.38;;;3.17;100.00
8320;BME280;4197;42.130;24.746;2024-03-23T04:55:38;99705.78;;;3.26;100.00
8320;BME280;4197;42.130;24.746;2024-03-23T04:58:06;99703.78;;;3.31;100.00
8320;BME280;4197;42.130;24.746;2024-03-23T05:00:34;99700.81;;;3.19;100.00
8320;BME280;4197;42.130;24.746;2024-03-23T05:03:00;99698.94;;;3.20;100.00
8320;BME280;4197;42.130;24.746;2024-03-23T05:05:29;99703.28;;;3.29;100.00
8320;BME280;4197;42.130;24.746;2024-03-23T05:07:55;99706.66;;;3.35;100.00
8320;BME280;4197;42.130;24.746;2024-03-23T05:10:22;99698.22;;;3.42;100.00
8320;BME280;4197;42.130;24.746;2024-03-23T05:12:48;99706.34;;;3.50;100.00
8320;BME280;4197;42.130;24.746;2024-03-23T05:15:17;99696.91;;;3.53;100.00
8320;BME280;4197;42.130;24.746;2024-03-23T05:17:43;99705.34;;;3.60;100.00
8320;BME280;4197;42.130;24.746;2024-03-23T05:20:11;99698.47;;;3.68;100.00
8320;BME280;4197;42.130;24.746;2024-03-23T05:22:38;99694.47;;;3.79;100.00
8320;BME280;4197;42.130;24.746;2024-03-23T05:25:06;99692.00;;;3.83;100.00
8320;BME280;4197;42.130;24.746;2024-03-23T05:27:33;99693.56;;;3.84;100.00
8320;BME280;4197;42.130;24.746;2024-03-23T05:30:01;99690.00;;;3.88;100.00
8320;BME280;4197;42.130;24.746;2024-03-23T05:32:31;99698.03;;;3.88;100.00
8320;BME280;4197;42.130;24.746;2024-03-23T05:34:58;99700.59;;;3.93;98.26
8320;BME280;4197;42.130;24.746;2024-03-23T05:37:24;99698.91;;;3.97;98.36
8320;BME280;4197;42.130;24.746;2024-03-23T05:39:52;99702.00;;;3.91;99.13
8320;BME280;4197;42.130;24.746;2024-03-23T05:42:18;99695.09;;;3.98;98.40
8320;BME280;4197;42.130;24.746;2024-03-23T05:44:46;99689.69;;;4.12;96.88
8320;BME280;4197;42.130;24.746;2024-03-23T05:47:13;99698.22;;;4.14;96.05
8320;BME280;4197;42.130;24.746;2024-03-23T05:49:43;99698.66;;;4.30;94.36
8320;BME280;4197;42.130;24.746;2024-03-23T05:52:12;99691.53;;;4.25;95.91
8320;BME280;4197;42.130;24.746;2024-03-23T05:54:39;99693.72;;;4.23;95.56
8320;BME280;4197;42.130;24.746;2024-03-23T05:57:06;99695.00;;;4.26;96.15
8320;BME280;4197;42.130;24.746;2024-03-23T05:59:34;99692.97;;;4.32;96.87
8320;BME280;4197;42.130;24.746;2024-03-23T06:02:01;99688.69;;;4.53;93.68
8320;BME280;4197;42.130;24.746;2024-03-23T06:04:31;99691.91;;;4.64;91.43
8320;BME280;4197;42.130;24.746;2024-03-23T06:07:00;99692.53;;;4.61;93.52
8320;BME280;4197;42.130;24.746;2024-03-23T06:09:27;99686.28;;;4.74;93.02
8320;BME280;4197;42.130;24.746;2024-03-23T06:11:53;99696.31;;;4.91;90.53
8320;BME280;4197;42.130;24.746;2024-03-23T06:14:20;99690.00;;;4.96;89.80
8320;BME280;4197;42.130;24.746;2024-03-23T06:16:46;99692.69;;;4.96;89.32
8320;BME280;4197;42.130;24.746;2024-03-23T06:19:15;99695.09;;;5.06;88.48
8320;BME280;4197;42.130;24.746;2024-03-23T06:21:43;99689.47;;;5.25;85.86
8320;BME280;4197;42.130;24.746;2024-03-23T06:24:12;99690.41;;;5.20;85.82
8320;BME280;4197;42.130;24.746;2024-03-23T06:26:39;99690.75;;;5.27;86.56
8320;BME280;4197;42.130;24.746;2024-03-23T06:29:06;99689.03;;;5.40;84.60
8320;BME280;4197;42.130;24.746;2024-03-23T06:31:32;99690.63;;;5.41;85.00
8320;BME280;4197;42.130;24.746;2024-03-23T06:34:00;99688.44;;;5.43;85.47
8320;BME280;4197;42.130;24.746;2024-03-23T06:36:27;99686.22;;;5.54;84.92
8320;BME280;4197;42.130;24.746;2024-03-23T06:38:56;99694.63;;;5.61;83.85
8320;BME280;4197;42.130;24.746;2024-03-23T06:41:25;99695.25;;;5.67;84.82
8320;BME280;4197;42.130;24.746;2024-03-23T06:43:53;99691.50;;;5.76;83.45
8320;BME280;4197;42.130;24.746;2024-03-23T06:46:19;99684.72;;;5.96;80.81
8320;BME280;4197;42.130;24.746;2024-03-23T06:48:46;99686.44;;;6.01;79.89
8320;BME280;4197;42.130;24.746;2024-03-23T06:51:13;99685.34;;;6.02;79.48
8320;BME280;4197;42.130;24.746;2024-03-23T06:53:40;99692.44;;;6.07;79.25
8320;BME280;4197;42.130;24.746;2024-03-23T06:56:06;99685.81;;;6.13;77.83
8320;BME280;4197;42.130;24.746;2024-03-23T06:58:35;99689.44;;;6.08;78.29
8320;BME280;4197;42.130;24.746;2024-03-23T07:01:02;99690.41;;;6.03;77.81
8320;BME280;4197;42.130;24.746;2024-03-23T07:03:30;99690.06;;;6.31;77.51
8320;BME280;4197;42.130;24.746;2024-03-23T07:05:58;99687.03;;;6.50;76.99
8320;BME280;4197;42.130;24.746;2024-03-23T07:08:25;99683.34;;;6.63;74.59
8320;BME280;4197;42.130;24.746;2024-03-23T07:10:51;99682.22;;;6.64;75.02
8320;BME280;4197;42.130;24.746;2024-03-23T07:13:19;99683.81;;;6.65;75.22
8320;BME280;4197;42.130;24.746;2024-03-23T07:15:53;99681.63;;;6.97;72.61
8320;BME280;4197;42.130;24.746;2024-03-23T07:18:21;99678.13;;;7.05;71.77
8320;BME280;4197;42.130;24.746;2024-03-23T07:20:54;99678.19;;;7.18;70.16
8320;BME280;4197;42.130;24.746;2024-03-23T07:23:23;99676.53;;;7.04;71.24
8320;BME280;4197;42.130;24.746;2024-03-23T07:25:57;99678.16;;;6.97;71.20
8320;BME280;4197;42.130;24.746;2024-03-23T07:28:25;99675.28;;;7.02;72.40
8320;BME280;4197;42.130;24.746;2024-03-23T07:31:04;99675.16;;;7.28;70.68
8320;BME280;4197;42.130;24.746;2024-03-23T07:33:32;99667.69;;;7.54;69.13
8320;BME280;4197;42.130;24.746;2024-03-23T07:35:59;99666.91;;;7.54;69.48
8320;BME280;4197;42.130;24.746;2024-03-23T07:38:28;99663.44;;;7.95;66.72
8320;BME280;4197;42.130;24.746;2024-03-23T07:41:05;99662.75;;;7.98;65.94
8320;BME280;4197;42.130;24.746;2024-03-23T07:43:33;99661.91;;;8.07;66.25
8320;BME280;4197;42.130;24.746;2024-03-23T07:46:00;99661.53;;;8.08;66.98
8320;BME280;4197;42.130;24.746;2024-03-23T07:48:31;99665.50;;;8.11;66.37
8320;BME280;4197;42.130;24.746;2024-03-23T07:50:59;99663.84;;;8.18;65.62
8320;BME280;4197;42.130;24.746;2024-03-23T07:53:28;99654.97;;;8.18;64.92
8320;BME280;4197;42.130;24.746;2024-03-23T07:55:56;99651.81;;;8.28;64.62
8320;BME280;4197;42.130;24.746;2024-03-23T07:58:24;99653.47;;;8.41;64.66
8320;BME280;4197;42.130;24.746;2024-03-23T08:00:50;99643.38;;;8.75;62.39
8320;BME280;4197;42.130;24.746;2024-03-23T08:03:18;99642.16;;;8.73;63.07
8320;BME280;4197;42.130;24.746;2024-03-23T08:05:47;99640.81;;;8.79;61.66
8320;BME280;4197;42.130;24.746;2024-03-23T08:08:15;99638.34;;;8.86;62.39
8320;BME280;4197;42.130;24.746;2024-03-23T08:10:49;99630.13;;;9.07;61.12
8320;BME280;4197;42.130;24.746;2024-03-23T08:13:17;99635.97;;;9.21;59.57
8320;BME280;4197;42.130;24.746;2024-03-23T08:15:44;99635.03;;;9.42;60.37
8320;BME280;4197;42.130;24.746;2024-03-23T08:18:13;99632.25;;;9.66;57.07
8320;BME280;4197;42.130;24.746;2024-03-23T08:20:41;99620.78;;;9.57;57.73
8320;BME280;4197;42.130;24.746;2024-03-23T08:23:11;99621.34;;;9.63;57.14
8320;BME280;4197;42.130;24.746;2024-03-23T08:25:37;99624.34;;;9.73;56.80
8320;BME280;4197;42.130;24.746;2024-03-23T08:28:05;99618.94;;;9.73;55.85
8320;BME280;4197;42.130;24.746;2024-03-23T08:30:31;99616.66;;;9.75;56.09
8320;BME280;4197;42.130;24.746;2024-03-23T08:32:58;99612.78;;;9.89;55.19
8320;BME280;4197;42.130;24.746;2024-03-23T08:35:25;99604.25;;;10.02;54.57
8320;BME280;4197;42.130;24.746;2024-03-23T08:37:52;99608.03;;;10.14;55.14
8320;BME280;4197;42.130;24.746;2024-03-23T08:40:20;99598.63;;;10.23;55.52
8320;BME280;4197;42.130;24.746;2024-03-23T08:42:48;99595.69;;;10.44;54.16
8320;BME280;4197;42.130;24.746;2024-03-23T08:45:14;99594.47;;;10.74;53.07
8320;BME280;4197;42.130;24.746;2024-03-23T08:47:44;99588.22;;;10.89;52.70
8320;BME280;4197;42.130;24.746;2024-03-23T08:50:10;99595.13;;;11.02;51.83
8320;BME280;4197;42.130;24.746;2024-03-23T08:52:38;99589.88;;;11.09;51.38
8320;BME280;4197;42.130;24.746;2024-03-23T08:55:05;99583.16;;;11.03;50.97
8320;BME280;4197;42.130;24.746;2024-03-23T08:57:34;99582.06;;;11.08;50.46
8320;BME280;4197;42.130;24.746;2024-03-23T09:00:00;99578.84;;;11.02;49.68
8320;BME280;4197;42.130;24.746;2024-03-23T09:02:28;99576.81;;;11.15;50.55
8320;BME280;4197;42.130;24.746;2024-03-23T09:04:54;99566.81;;;11.19;50.53
8320;BME280;4197;42.130;24.746;2024-03-23T09:07:21;99570.91;;;11.29;49.47
8320;BME280;4197;42.130;24.746;2024-03-23T09:09:48;99561.00;;;11.36;48.88
8320;BME280;4197;42.130;24.746;2024-03-23T09:12:15;99565.84;;;11.27;48.79
8320;BME280;4197;42.130;24.746;2024-03-23T09:14:43;99560.28;;;11.39;48.83
8320;BME280;4197;42.130;24.746;2024-03-23T09:17:11;99559.34;;;11.71;47.59
8320;BME280;4197;42.130;24.746;2024-03-23T09:19:38;99551.47;;;11.85;47.51
8320;BME280;4197;42.130;24.746;2024-03-23T09:22:07;99552.63;;;11.84;47.63
8320;BME280;4197;42.130;24.746;2024-03-23T09:24:33;99544.75;;;11.79;47.68
8320;BME280;4197;42.130;24.746;2024-03-23T09:27:00;99546.59;;;11.75;47.70
8320;BME280;4197;42.130;24.746;2024-03-23T09:29:26;99536.84;;;11.90;47.33
8320;BME280;4197;42.130;24.746;2024-03-23T09:31:55;99535.66;;;12.10;48.15
8320;BME280;4197;42.130;24.746;2024-03-23T09:34:22;99532.56;;;12.35;47.54
8320;BME280;4197;42.130;24.746;2024-03-23T09:36:51;99531.66;;;12.50;46.43
8320;BME280;4197;42.130;24.746;2024-03-23T09:39:17;99531.97;;;12.45;46.69
8320;BME280;4197;42.130;24.746;2024-03-23T09:41:45;99522.03;;;12.56;46.90
8320;BME280;4197;42.130;24.746;2024-03-23T09:44:12;99519.50;;;12.67;46.83
8320;BME280;4197;42.130;24.746;2024-03-23T09:46:40;99514.59;;;12.80;45.71
8320;BME280;4197;42.130;24.746;2024-03-23T09:49:08;99513.19;;;12.63;46.40
8320;BME280;4197;42.130;24.746;2024-03-23T09:51:37;99509.38;;;12.67;46.22
8320;BME280;4197;42.130;24.746;2024-03-23T09:54:03;99503.22;;;12.70;46.85
8320;BME280;4197;42.130;24.746;2024-03-23T09:56:30;99498.13;;;12.69;46.38
8320;BME280;4197;42.130;24.746;2024-03-23T09:59:03;99501.78;;;12.80;46.65
8320;BME280;4197;42.130;24.746;2024-03-23T10:01:32;99486.91;;;13.01;45.66
8320;BME280;4197;42.130;24.746;2024-03-23T10:03:58;99490.00;;;12.99;45.50
8320;BME280;4197;42.130;24.746;2024-03-23T10:06:27;99484.38;;;13.15;45.24
8320;BME280;4197;42.130;24.746;2024-03-23T10:08:54;99484.72;;;13.13;44.87
8320;BME280;4197;42.130;24.746;2024-03-23T10:11:21;99481.47;;;13.01;44.84
8320;BME280;4197;42.130;24.746;2024-03-23T10:13:47;99476.53;;;13.10;44.83
8320;BME280;4197;42.130;24.746;2024-03-23T10:16:23;99470.53;;;13.27;45.12
8320;BME280;4197;42.130;24.746;2024-03-23T10:18:50;99464.28;;;13.60;45.10
8320;BME280;4197;42.130;24.746;2024-03-23T10:21:18;99460.41;;;13.61;45.35
8320;BME280;4197;42.130;24.746;2024-03-23T10:23:46;99457.72;;;13.65;45.04
8320;BME280;4197;42.130;24.746;2024-03-23T10:26:18;99451.66;;;13.82;44.75
8320;BME280;4197;42.130;24.746;2024-03-23T10:28:55;99449.00;;;13.90;44.08
8320;BME280;4197;42.130;24.746;2024-03-23T10:31:27;99447.91;;;13.98;43.57
8320;BME280;4197;42.130;24.746;2024-03-23T10:33:54;99436.69;;;14.06;44.23
8320;BME280;4197;42.130;24.746;2024-03-23T10:36:22;99440.28;;;14.21;44.20
8320;BME280;4197;42.130;24.746;2024-03-23T10:38:52;99424.41;;;14.31;43.66
8320;BME280;4197;42.130;24.746;2024-03-23T10:41:20;99415.13;;;14.42;43.23
8320;BME280;4197;42.130;24.746;2024-03-23T10:43:48;99417.91;;;14.49;43.29
8320;BME280;4197;42.130;24.746;2024-03-23T10:46:16;99420.22;;;14.51;41.33
8320;BME280;4197;42.130;24.746;2024-03-23T10:48:43;99408.81;;;14.31;41.54
8320;BME280;4197;42.130;24.746;2024-03-23T10:51:12;99408.41;;;14.33;42.45
8320;BME280;4197;42.130;24.746;2024-03-23T10:53:40;99406.50;;;14.37;41.55
8320;BME280;4197;42.130;24.746;2024-03-23T10:56:11;99401.81;;;14.30;41.80
8320;BME280;4197;42.130;24.746;2024-03-23T10:58:42;99395.19;;;14.35;41.66
8320;BME280;4197;42.130;24.746;2024-03-23T11:01:11;99398.34;;;14.40;40.21
8320;BME280;4197;42.130;24.746;2024-03-23T11:03:38;99390.13;;;14.37;40.16
8320;BME280;4197;42.130;24.746;2024-03-23T11:06:07;99381.25;;;14.47;40.54
8320;BME280;4197;42.130;24.746;2024-03-23T11:08:35;99372.34;;;14.57;41.00
8320;BME280;4197;42.130;24.746;2024-03-23T11:11:17;99370.06;;;14.66;41.41
8320;BME280;4197;42.130;24.746;2024-03-23T11:13:44;99370.34;;;14.47;41.28
8320;BME280;4197;42.130;24.746;2024-03-23T11:16:16;99351.19;;;14.36;41.24
8320;BME280;4197;42.130;24.746;2024-03-23T11:18:44;99348.16;;;14.52;41.09
8320;BME280;4197;42.130;24.746;2024-03-23T11:21:51;99347.13;;;14.82;40.21
8320;BME280;4197;42.130;24.746;2024-03-23T11:24:22;99340.50;;;14.93;39.91
8320;BME280;4197;42.130;24.746;2024-03-23T11:26:51;99336.25;;;15.03;39.03
8320;BME280;4197;42.130;24.746;2024-03-23T11:29:17;99333.94;;;15.09;38.71
8320;BME280;4197;42.130;24.746;2024-03-23T11:31:48;99335.09;;;14.97;39.39
8320;BME280;4197;42.130;24.746;2024-03-23T11:34:16;99317.16;;;15.07;39.55
8320;BME280;4197;42.130;24.746;2024-03-23T11:36:43;99320.31;;;15.20;39.30
8320;BME280;4197;42.130;24.746;2024-03-23T11:39:13;99309.00;;;15.46;37.96
8320;BME280;4197;42.130;24.746;2024-03-23T11:41:49;99304.72;;;15.45;37.73
8320;BME280;4197;42.130;24.746;2024-03-23T11:44:18;99302.00;;;15.38;37.74
8320;BME280;4197;42.130;24.746;2024-03-23T11:46:46;99293.41;;;15.47;38.05
8320;BME280;4197;42.130;24.746;2024-03-23T11:49:23;99285.56;;;15.59;37.94
8320;BME280;4197;42.130;24.746;2024-03-23T11:51:52;99278.94;;;15.53;38.04
8320;BME280;4197;42.130;24.746;2024-03-23T11:54:20;99278.16;;;15.64;37.94
8320;BME280;4197;42.130;24.746;2024-03-23T11:56:56;99272.34;;;15.69;38.58
8320;BME280;4197;42.130;24.746;2024-03-23T11:59:35;99274.28;;;15.82;38.15
8320;BME280;4197;42.130;24.746;2024-03-23T12:02:07;99272.69;;;15.92;37.76
8320;BME280;4197;42.130;24.746;2024-03-23T12:04:34;99264.06;;;16.01;37.98
8320;BME280;4197;42.130;24.746;2024-03-23T12:07:10;99259.78;;;15.89;37.80
8320;BME280;4197;42.130;24.746;2024-03-23T12:09:37;99246.13;;;15.96;37.17
8320;BME280;4197;42.130;24.746;2024-03-23T12:12:10;99248.00;;;16.14;36.86
8320;BME280;4197;42.130;24.746;2024-03-23T12:14:39;99243.66;;;16.27;36.86
8320;BME280;4197;42.130;24.746;2024-03-23T12:17:09;99236.56;;;16.37;37.19
8320;BME280;4197;42.130;24.746;2024-03-23T12:19:35;99232.66;;;16.41;37.05
8320;BME280;4197;42.130;24.746;2024-03-23T12:22:04;99235.34;;;16.48;36.09
8320;BME280;4197;42.130;24.746;2024-03-23T12:24:32;99226.78;;;16.46;36.25
8320;BME280;4197;42.130;24.746;2024-03-23T12:27:01;99229.81;;;16.59;35.12
8320;BME280;4197;42.130;24.746;2024-03-23T12:29:29;99216.91;;;16.60;34.95
8320;BME280;4197;42.130;24.746;2024-03-23T12:32:01;99215.47;;;16.37;34.80
8320;BME280;4197;42.130;24.746;2024-03-23T12:34:28;99216.66;;;16.36;34.92
8320;BME280;4197;42.130;24.746;2024-03-23T12:36:56;99206.81;;;16.49;35.00
8320;BME280;4197;42.130;24.746;2024-03-23T12:39:22;99205.19;;;16.63;34.36
8320;BME280;4197;42.130;24.746;2024-03-23T12:41:50;99202.13;;;16.50;34.35
8320;BME280;4197;42.130;24.746;2024-03-23T12:44:18;99192.69;;;16.58;34.23
8320;BME280;4197;42.130;24.746;2024-03-23T12:46:46;99190.75;;;16.51;34.98
8320;BME280;4197;42.130;24.746;2024-03-23T12:49:14;99185.97;;;16.66;35.62
8320;BME280;4197;42.130;24.746;2024-03-23T12:51:48;99192.19;;;16.78;35.33
8320;BME280;4197;42.130;24.746;2024-03-23T12:54:14;99180.81;;;16.83;34.61
8320;BME280;4197;42.130;24.746;2024-03-23T12:56:42;99176.97;;;16.69;33.57
8320;BME280;4197;42.130;24.746;2024-03-23T12:59:08;99172.25;;;16.70;33.65
8320;BME280;4197;42.130;24.746;2024-03-23T13:01:35;99175.00;;;16.70;33.67
8320;BME280;4197;42.130;24.746;2024-03-23T13:04:01;99168.72;;;16.80;33.22
8320;BME280;4197;42.130;24.746;2024-03-23T13:06:31;99172.22;;;16.73;32.51
8320;BME280;4197;42.130;24.746;2024-03-23T13:09:00;99168.84;;;16.51;32.37
8320;BME280;4197;42.130;24.746;2024-03-23T13:11:27;99148.91;;;16.55;32.24
8320;BME280;4197;42.130;24.746;2024-03-23T13:13:54;99152.47;;;16.48;31.54
8320;BME280;4197;42.130;24.746;2024-03-23T13:16:22;99157.47;;;16.60;31.38
8320;BME280;4197;42.130;24.746;2024-03-23T13:18:49;99152.31;;;16.69;30.07
8320;BME280;4197;42.130;24.746;2024-03-23T13:21:17;99146.06;;;16.69;31.48
8320;BME280;4197;42.130;24.746;2024-03-23T13:23:48;99142.56;;;16.65;32.57
8320;BME280;4197;42.130;24.746;2024-03-23T13:26:16;99137.78;;;16.83;31.76
8320;BME280;4197;42.130;24.746;2024-03-23T13:28:42;99136.19;;;16.86;30.85
8320;BME280;4197;42.130;24.746;2024-03-23T13:31:10;99129.91;;;16.89;30.90
8320;BME280;4197;42.130;24.746;2024-03-23T13:33:36;99133.19;;;16.66;31.37
8320;BME280;4197;42.130;24.746;2024-03-23T13:36:06;99117.47;;;16.73;31.74
8320;BME280;4197;42.130;24.746;2024-03-23T13:38:32;99122.94;;;16.81;31.93
8320;BME280;4197;42.130;24.746;2024-03-23T13:41:01;99117.66;;;17.01;31.36
8320;BME280;4197;42.130;24.746;2024-03-23T13:43:28;99117.19;;;17.09;31.30
8320;BME280;4197;42.130;24.746;2024-03-23T13:45:56;99115.69;;;17.05;30.35
8320;BME280;4197;42.130;24.746;2024-03-23T13:48:26;99104.34;;;17.03;30.16
8320;BME280;4197;42.130;24.746;2024-03-23T13:50:58;99108.63;;;17.07;31.02
8320;BME280;4197;42.130;24.746;2024-03-23T13:53:24;99105.84;;;17.11;31.21
8320;BME280;4197;42.130;24.746;2024-03-23T13:55:53;99090.47;;;17.24;30.98
8320;BME280;4197;42.130;24.746;2024-03-23T13:58:21;99087.34;;;17.22;30.57
8320;BME280;4197;42.130;24.746;2024-03-23T14:00:49;99085.31;;;17.26;31.23
8320;BME280;4197;42.130;24.746;2024-03-23T14:03:16;99092.63;;;17.02;30.11
8320;BME280;4197;42.130;24.746;2024-03-23T14:05:44;99092.97;;;17.08;30.83
8320;BME280;4197;42.130;24.746;2024-03-23T14:08:11;99087.06;;;17.09;30.41
8320;BME280;4197;42.130;24.746;2024-03-23T14:10:41;99077.34;;;17.05;30.42